sensor_id;sensor_type;location;lat;lon;timestamp;P1;durP1;ratioP1;P2;durP2;ratioP2
54745;SDS011;40640;48.130;11.356;2023-06-26T00:02:06;10.15;;;7.35;;
54745;SDS011;40640;48.130;11.356;2023-06-26T00:06:09;12.50;;;7.78;;
54745;SDS011;40640;48.130;11.356;2023-06-26T00:10:13;9.88;;;7.25;;
54745;SDS011;40640;48.130;11.356;2023-06-26T00:14:16;11.93;;;7.25;;
54745;SDS011;40640;48.130;11.356;2023-06-26T00:18:20;12.30;;;7.88;;
54745;SDS011;40640;48.130;11.356;2023-06-26T00:22:24;16.27;;;7.38;;
54745;SDS011;40640;48.130;11.356;2023-06-26T00:26:28;12.90;;;7.13;;
54745;SDS011;40640;48.130;11.356;2023-06-26T00:30:31;10.50;;;6.63;;
54745;SDS011;40640;48.130;11.356;2023-06-26T00:34:34;9.38;;;6.78;;
54745;SDS011;40640;48.130;11.356;2023-06-26T00:38:37;10.15;;;7.30;;
54745;SDS011;40640;48.130;11.356;2023-06-26T00:42:41;11.68;;;7.80;;
54745;SDS011;40640;48.130;11.356;2023-06-26T00:46:44;12.43;;;7.72;;
54745;SDS011;40640;48.130;11.356;2023-06-26T00:50:48;13.68;;;7.82;;
54745;SDS011;40640;48.130;11.356;2023-06-26T00:54:51;9.45;;;7.18;;
54745;SDS011;40640;48.130;11.356;2023-06-26T00:58:56;10.23;;;7.05;;
54745;SDS011;40640;48.130;11.356;2023-06-26T01:03:00;11.80;;;7.57;;
54745;SDS011;40640;48.130;11.356;2023-06-26T01:07:04;10.68;;;8.05;;
54745;SDS011;40640;48.130;11.356;2023-06-26T01:11:08;9.95;;;7.00;;
54745;SDS011;40640;48.130;11.356;2023-06-26T01:15:13;11.00;;;6.85;;
54745;SDS011;40640;48.130;11.356;2023-06-26T01:19:18;12.00;;;7.22;;
54745;SDS011;40640;48.130;11.356;2023-06-26T01:23:29;10.30;;;6.93;;
54745;SDS011;40640;48.130;11.356;2023-06-26T01:27:39;10.18;;;6.57;;
54745;SDS011;40640;48.130;11.356;2023-06-26T01:31:43;11.70;;;7.35;;
54745;SDS011;40640;48.130;11.356;2023-06-26T01:35:47;10.57;;;7.45;;
54745;SDS011;40640;48.130;11.356;2023-06-26T01:39:51;10.00;;;7.30;;
54745;SDS011;40640;48.130;11.356;2023-06-26T01:44:01;10.93;;;7.18;;
54745;SDS011;40640;48.130;11.356;2023-06-26T01:48:09;11.35;;;7.22;;
54745;SDS011;40640;48.130;11.356;2023-06-26T01:52:17;12.52;;;7.43;;
54745;SDS011;40640;48.130;11.356;2023-06-26T01:56:24;10.68;;;7.35;;
54745;SDS011;40640;48.130;11.356;2023-06-26T02:00:29;11.68;;;7.03;;
54745;SDS011;40640;48.130;11.356;2023-06-26T02:04:33;12.05;;;7.30;;
54745;SDS011;40640;48.130;11.356;2023-06-26T02:08:36;10.40;;;6.90;;
54745;SDS011;40640;48.130;11.356;2023-06-26T02:12:39;10.07;;;6.78;;
54745;SDS011;40640;48.130;11.356;2023-06-26T02:16:43;9.20;;;7.07;;
54745;SDS011;40640;48.130;11.356;2023-06-26T02:20:46;11.07;;;7.20;;
54745;SDS011;40640;48.130;11.356;2023-06-26T02:24:48;11.30;;;7.43;;
54745;SDS011;40640;48.130;11.356;2023-06-26T02:28:51;14.50;;;7.10;;
54745;SDS011;40640;48.130;11.356;2023-06-26T02:32:56;9.68;;;6.85;;
54745;SDS011;40640;48.130;11.356;2023-06-26T02:36:59;10.38;;;7.38;;
54745;SDS011;40640;48.130;11.356;2023-06-26T02:41:02;13.10;;;7.60;;
54745;SDS011;40640;48.130;11.356;2023-06-26T02:45:06;14.60;;;7.55;;
54745;SDS011;40640;48.130;11.356;2023-06-26T02:49:11;14.32;;;6.90;;
54745;SDS011;40640;48.130;11.356;2023-06-26T02:53:14;13.10;;;7.43;;
54745;SDS011;40640;48.130;11.356;2023-06-26T02:57:20;13.55;;;8.63;;
54745;SDS011;40640;48.130;11.356;2023-06-26T03:01:23;11.57;;;7.75;;
54745;SDS011;40640;48.130;11.356;2023-06-26T03:05:28;12.40;;;7.40;;
54745;SDS011;40640;48.130;11.356;2023-06-26T03:09:32;14.90;;;8.73;;
54745;SDS011;40640;48.130;11.356;2023-06-26T03:13:36;13.40;;;7.93;;
54745;SDS011;40640;48.130;11.356;2023-06-26T03:17:39;11.82;;;7.57;;
54745;SDS011;40640;48.130;11.356;2023-06-26T03:21:48;12.43;;;7.78;;
54745;SDS011;40640;48.130;11.356;2023-06-26T03:25:51;11.98;;;7.72;;
54745;SDS011;40640;48.130;11.356;2023-06-26T03:29:59;12.27;;;7.97;;
54745;SDS011;40640;48.130;11.356;2023-06-26T03:34:03;17.02;;;8.15;;
54745;SDS011;40640;48.130;11.356;2023-06-26T03:38:07;13.57;;;7.72;;
54745;SDS011;40640;48.130;11.356;2023-06-26T03:42:10;11.48;;;8.23;;
54745;SDS011;40640;48.130;11.356;2023-06-26T03:46:13;16.33;;;7.90;;
54745;SDS011;40640;48.130;11.356;2023-06-26T03:50:16;15.18;;;7.90;;
54745;SDS011;40640;48.130;11.356;2023-06-26T03:54:21;11.68;;;8.10;;
54745;SDS011;40640;48.130;11.356;2023-06-26T03:58:24;12.10;;;7.68;;
54745;SDS011;40640;48.130;11.356;2023-06-26T04:02:27;13.57;;;8.32;;
54745;SDS011;40640;48.130;11.356;2023-06-26T04:06:30;10.38;;;7.75;;
54745;SDS011;40640;48.130;11.356;2023-06-26T04:10:36;12.80;;;8.48;;
54745;SDS011;40640;48.130;11.356;2023-06-26T04:14:39;13.25;;;8.48;;
54745;SDS011;40640;48.130;11.356;2023-06-26T04:18:45;11.70;;;7.75;;
54745;SDS011;40640;48.130;11.356;2023-06-26T04:22:48;11.82;;;8.23;;
54745;SDS011;40640;48.130;11.356;2023-06-26T04:26:52;11.23;;;7.82;;
54745;SDS011;40640;48.130;11.356;2023-06-26T04:30:58;13.88;;;7.90;;
54745;SDS011;40640;48.130;11.356;2023-06-26T04:35:01;10.50;;;7.22;;
54745;SDS011;40640;48.130;11.356;2023-06-26T04:39:04;12.98;;;8.18;;
54745;SDS011;40640;48.130;11.356;2023-06-26T04:43:09;11.05;;;7.80;;
54745;SDS011;40640;48.130;11.356;2023-06-26T04:47:12;11.50;;;8.10;;
54745;SDS011;40640;48.130;11.356;2023-06-26T04:51:16;11.82;;;7.68;;
54745;SDS011;40640;48.130;11.356;2023-06-26T04:55:23;18.17;;;9.30;;
54745;SDS011;40640;48.130;11.356;2023-06-26T04:59:28;14.00;;;8.68;;
54745;SDS011;40640;48.130;11.356;2023-06-26T05:03:30;13.65;;;8.70;;
54745;SDS011;40640;48.130;11.356;2023-06-26T05:07:34;15.88;;;8.27;;
54745;SDS011;40640;48.130;11.356;2023-06-26T05:11:37;16.55;;;8.90;;
54745;SDS011;40640;48.130;11.356;2023-06-26T05:15:41;16.02;;;9.75;;
54745;SDS011;40640;48.130;11.356;2023-06-26T05:19:44;11.63;;;8.40;;
54745;SDS011;40640;48.130;11.356;2023-06-26T05:23:47;12.98;;;7.93;;
54745;SDS011;40640;48.130;11.356;2023-06-26T05:27:51;12.13;;;8.00;;
54745;SDS011;40640;48.130;11.356;2023-06-26T05:31:55;11.30;;;8.02;;
54745;SDS011;40640;48.130;11.356;2023-06-26T05:35:59;14.68;;;8.32;;
54745;SDS011;40640;48.130;11.356;2023-06-26T05:40:05;15.07;;;8.60;;
54745;SDS011;40640;48.130;11.356;2023-06-26T05:44:09;10.85;;;7.78;;
54745;SDS011;40640;48.130;11.356;2023-06-26T05:48:13;15.63;;;8.93;;
54745;SDS011;40640;48.130;11.356;2023-06-26T05:52:16;10.75;;;7.13;;
54745;SDS011;40640;48.130;11.356;2023-06-26T05:56:20;9.63;;;6.97;;
54745;SDS011;40640;48.130;11.356;2023-06-26T06:00:23;13.65;;;7.03;;
54745;SDS011;40640;48.130;11.356;2023-06-26T06:04:29;6.95;;;6.25;;
54745;SDS011;40640;48.130;11.356;2023-06-26T06:08:32;10.30;;;7.10;;
54745;SDS011;40640;48.130;11.356;2023-06-26T06:12:35;7.00;;;6.30;;
54745;SDS011;40640;48.130;11.356;2023-06-26T06:16:38;7.03;;;6.22;;
54745;SDS011;40640;48.130;11.356;2023-06-26T06:20:42;8.13;;;7.07;;
54745;SDS011;40640;48.130;11.356;2023-06-26T06:24:45;9.05;;;7.28;;
54745;SDS011;40640;48.130;11.356;2023-06-26T06:28:48;9.02;;;6.63;;
54745;SDS011;40640;48.130;11.356;2023-06-26T06:32:51;12.80;;;6.75;;
54745;SDS011;40640;48.130;11.356;2023-06-26T06:36:55;7.95;;;6.30;;
54745;SDS011;40640;48.130;11.356;2023-06-26T06:40:58;12.75;;;6.22;;
54745;SDS011;40640;48.130;11.356;2023-06-26T06:45:01;9.50;;;6.53;;
54745;SDS011;40640;48.130;11.356;2023-06-26T06:49:05;8.50;;;6.28;;
54745;SDS011;40640;48.130;11.356;2023-06-26T06:53:09;7.22;;;6.00;;
54745;SDS011;40640;48.130;11.356;2023-06-26T06:57:12;8.95;;;6.00;;
54745;SDS011;40640;48.130;11.356;2023-06-26T07:01:15;12.38;;;6.30;;
54745;SDS011;40640;48.130;11.356;2023-06-26T07:05:18;6.90;;;5.82;;
54745;SDS011;40640;48.130;11.356;2023-06-26T07:09:22;8.32;;;6.40;;
54745;SDS011;40640;48.130;11.356;2023-06-26T07:13:25;9.52;;;6.28;;
54745;SDS011;40640;48.130;11.356;2023-06-26T07:17:28;8.65;;;6.20;;
54745;SDS011;40640;48.130;11.356;2023-06-26T07:21:31;7.07;;;6.20;;
54745;SDS011;40640;48.130;11.356;2023-06-26T07:25:35;8.73;;;6.75;;
54745;SDS011;40640;48.130;11.356;2023-06-26T07:29:38;8.15;;;5.90;;
54745;SDS011;40640;48.130;11.356;2023-06-26T07:33:41;14.48;;;6.13;;
54745;SDS011;40640;48.130;11.356;2023-06-26T07:37:44;8.38;;;6.50;;
54745;SDS011;40640;48.130;11.356;2023-06-26T07:41:48;9.85;;;6.03;;
54745;SDS011;40640;48.130;11.356;2023-06-26T07:45:51;10.00;;;7.07;;
54745;SDS011;40640;48.130;11.356;2023-06-26T07:49:55;9.32;;;6.78;;
54745;SDS011;40640;48.130;11.356;2023-06-26T07:53:58;9.55;;;6.68;;
54745;SDS011;40640;48.130;11.356;2023-06-26T07:58:02;10.45;;;6.63;;
54745;SDS011;40640;48.130;11.356;2023-06-26T08:02:05;11.85;;;6.35;;
54745;SDS011;40640;48.130;11.356;2023-06-26T08:06:09;8.57;;;6.20;;
54745;SDS011;40640;48.130;11.356;2023-06-26T08:10:13;9.15;;;6.40;;
54745;SDS011;40640;48.130;11.356;2023-06-26T08:14:17;9.60;;;5.70;;
54745;SDS011;40640;48.130;11.356;2023-06-26T08:18:20;7.78;;;5.75;;
54745;SDS011;40640;48.130;11.356;2023-06-26T08:22:23;9.18;;;6.32;;
54745;SDS011;40640;48.130;11.356;2023-06-26T08:26:26;12.93;;;6.47;;
54745;SDS011;40640;48.130;11.356;2023-06-26T08:30:31;8.10;;;5.97;;
54745;SDS011;40640;48.130;11.356;2023-06-26T08:34:34;6.90;;;5.88;;
54745;SDS011;40640;48.130;11.356;2023-06-26T08:38:37;6.43;;;5.45;;
54745;SDS011;40640;48.130;11.356;2023-06-26T08:42:41;7.78;;;5.82;;
54745;SDS011;40640;48.130;11.356;2023-06-26T08:46:45;8.13;;;5.38;;
54745;SDS011;40640;48.130;11.356;2023-06-26T08:50:48;6.00;;;4.72;;
54745;SDS011;40640;48.130;11.356;2023-06-26T08:58:59;6.38;;;5.05;;
54745;SDS011;40640;48.130;11.356;2023-06-26T09:03:04;7.63;;;4.63;;
54745;SDS011;40640;48.130;11.356;2023-06-26T09:07:08;5.47;;;4.82;;
54745;SDS011;40640;48.130;11.356;2023-06-26T09:11:11;7.18;;;5.03;;
54745;SDS011;40640;48.130;11.356;2023-06-26T09:15:14;5.68;;;4.82;;
54745;SDS011;40640;48.130;11.356;2023-06-26T09:19:19;4.40;;;4.00;;
54745;SDS011;40640;48.130;11.356;2023-06-26T09:23:22;5.93;;;4.18;;
54745;SDS011;40640;48.130;11.356;2023-06-26T09:27:25;4.50;;;4.10;;
54745;SDS011;40640;48.130;11.356;2023-06-26T09:31:28;8.48;;;3.95;;
54745;SDS011;40640;48.130;11.356;2023-06-26T09:35:43;5.05;;;3.75;;
54745;SDS011;40640;48.130;11.356;2023-06-26T09:39:46;4.83;;;3.73;;
54745;SDS011;40640;48.130;11.356;2023-06-26T09:43:49;5.28;;;4.25;;
54745;SDS011;40640;48.130;11.356;2023-06-26T09:47:53;5.65;;;3.70;;
54745;SDS011;40640;48.130;11.356;2023-06-26T09:51:59;6.15;;;3.83;;
54745;SDS011;40640;48.130;11.356;2023-06-26T09:56:06;4.85;;;4.20;;
54745;SDS011;40640;48.130;11.356;2023-06-26T10:00:10;6.47;;;4.07;;
54745;SDS011;40640;48.130;11.356;2023-06-26T10:04:15;5.35;;;4.03;;
54745;SDS011;40640;48.130;11.356;2023-06-26T10:08:19;5.97;;;4.18;;
54745;SDS011;40640;48.130;11.356;2023-06-26T10:12:24;4.97;;;3.97;;
54745;SDS011;40640;48.130;11.356;2023-06-26T10:16:29;4.30;;;3.90;;
54745;SDS011;40640;48.130;11.356;2023-06-26T10:20:35;5.20;;;3.95;;
54745;SDS011;40640;48.130;11.356;2023-06-26T10:24:40;5.95;;;3.58;;
54745;SDS011;40640;48.130;11.356;2023-06-26T10:28:44;4.78;;;3.70;;
54745;SDS011;40640;48.130;11.356;2023-06-26T10:32:49;4.78;;;3.88;;
54745;SDS011;40640;48.130;11.356;2023-06-26T10:36:59;8.25;;;4.20;;
54745;SDS011;40640;48.130;11.356;2023-06-26T10:41:10;5.88;;;3.92;;
54745;SDS011;40640;48.130;11.356;2023-06-26T10:45:14;4.40;;;4.00;;
54745;SDS011;40640;48.130;11.356;2023-06-26T10:49:18;4.43;;;4.00;;
54745;SDS011;40640;48.130;11.356;2023-06-26T10:53:22;5.25;;;4.13;;
54745;SDS011;40640;48.130;11.356;2023-06-26T10:57:30;6.45;;;3.97;;
54745;SDS011;40640;48.130;11.356;2023-06-26T11:01:40;4.43;;;4.03;;
54745;SDS011;40640;48.130;11.356;2023-06-26T11:05:43;5.25;;;4.75;;
54745;SDS011;40640;48.130;11.356;2023-06-26T11:09:56;5.43;;;4.05;;
54745;SDS011;40640;48.130;11.356;2023-06-26T11:14:02;5.90;;;4.35;;
54745;SDS011;40640;48.130;11.356;2023-06-26T11:18:05;7.60;;;4.40;;
54745;SDS011;40640;48.130;11.356;2023-06-26T11:22:08;5.07;;;4.57;;
54745;SDS011;40640;48.130;11.356;2023-06-26T11:26:12;9.40;;;5.10;;
54745;SDS011;40640;48.130;11.356;2023-06-26T11:30:23;7.33;;;4.80;;
54745;SDS011;40640;48.130;11.356;2023-06-26T11:34:30;5.70;;;5.10;;
54745;SDS011;40640;48.130;11.356;2023-06-26T11:38:36;5.38;;;4.47;;
54745;SDS011;40640;48.130;11.356;2023-06-26T11:42:39;5.72;;;4.93;;
54745;SDS011;40640;48.130;11.356;2023-06-26T11:46:44;6.63;;;5.40;;
54745;SDS011;40640;48.130;11.356;2023-06-26T11:50:49;5.18;;;4.78;;
54745;SDS011;40640;48.130;11.356;2023-06-26T11:54:52;4.85;;;4.45;;
54745;SDS011;40640;48.130;11.356;2023-06-26T11:58:57;8.75;;;3.95;;
54745;SDS011;40640;48.130;11.356;2023-06-26T12:03:03;5.07;;;4.50;;
54745;SDS011;40640;48.130;11.356;2023-06-26T12:07:08;5.47;;;4.90;;
54745;SDS011;40640;48.130;11.356;2023-06-26T12:11:12;5.50;;;4.28;;
54745;SDS011;40640;48.130;11.356;2023-06-26T12:15:15;5.22;;;4.72;;
54745;SDS011;40640;48.130;11.356;2023-06-26T12:19:24;5.55;;;5.05;;
54745;SDS011;40640;48.130;11.356;2023-06-26T12:23:32;5.10;;;4.60;;
54745;SDS011;40640;48.130;11.356;2023-06-26T12:27:35;6.10;;;4.85;;
54745;SDS011;40640;48.130;11.356;2023-06-26T12:31:39;5.38;;;4.90;;
54745;SDS011;40640;48.130;11.356;2023-06-26T12:35:46;6.72;;;4.82;;
54745;SDS011;40640;48.130;11.356;2023-06-26T12:39:49;6.10;;;5.50;;
54745;SDS011;40640;48.130;11.356;2023-06-26T12:43:55;6.20;;;5.00;;
54745;SDS011;40640;48.130;11.356;2023-06-26T12:48:06;5.75;;;4.70;;
54745;SDS011;40640;48.130;11.356;2023-06-26T12:52:13;7.22;;;5.28;;
54745;SDS011;40640;48.130;11.356;2023-06-26T12:56:17;5.65;;;4.75;;
54745;SDS011;40640;48.130;11.356;2023-06-26T13:04:25;5.78;;;5.25;;
54745;SDS011;40640;48.130;11.356;2023-06-26T13:08:29;5.10;;;4.60;;
54745;SDS011;40640;48.130;11.356;2023-06-26T13:12:32;7.22;;;4.75;;
54745;SDS011;40640;48.130;11.356;2023-06-26T13:16:35;5.87;;;5.30;;
54745;SDS011;40640;48.130;11.356;2023-06-26T13:20:38;7.18;;;5.07;;
54745;SDS011;40640;48.130;11.356;2023-06-26T13:24:43;6.47;;;5.60;;
54745;SDS011;40640;48.130;11.356;2023-06-26T13:28:46;6.13;;;5.50;;
54745;SDS011;40640;48.130;11.356;2023-06-26T13:32:49;7.80;;;5.32;;
54745;SDS011;40640;48.130;11.356;2023-06-26T13:36:52;7.70;;;5.32;;
54745;SDS011;40640;48.130;11.356;2023-06-26T13:40:57;6.97;;;5.38;;
54745;SDS011;40640;48.130;11.356;2023-06-26T13:45:02;8.18;;;5.22;;
54745;SDS011;40640;48.130;11.356;2023-06-26T13:49:19;6.15;;;5.50;;
54745;SDS011;40640;48.130;11.356;2023-06-26T13:53:22;10.27;;;5.65;;
54745;SDS011;40640;48.130;11.356;2023-06-26T13:57:26;7.75;;;5.60;;
54745;SDS011;40640;48.130;11.356;2023-06-26T14:01:29;6.15;;;5.43;;
54745;SDS011;40640;48.130;11.356;2023-06-26T14:05:33;7.22;;;5.45;;
54745;SDS011;40640;48.130;11.356;2023-06-26T14:09:36;7.00;;;5.40;;
54745;SDS011;40640;48.130;11.356;2023-06-26T14:13:41;5.97;;;5.38;;
54745;SDS011;40640;48.130;11.356;2023-06-26T14:17:45;7.35;;;5.60;;
54745;SDS011;40640;48.130;11.356;2023-06-26T14:21:49;8.18;;;6.18;;
54745;SDS011;40640;48.130;11.356;2023-06-26T14:25:52;7.38;;;5.80;;
54745;SDS011;40640;48.130;11.356;2023-06-26T14:29:56;9.05;;;5.10;;
54745;SDS011;40640;48.130;11.356;2023-06-26T14:33:59;6.90;;;4.93;;
54745;SDS011;40640;48.130;11.356;2023-06-26T14:38:04;8.65;;;5.50;;
54745;SDS011;40640;48.130;11.356;2023-06-26T14:42:07;8.27;;;5.72;;
54745;SDS011;40640;48.130;11.356;2023-06-26T14:46:12;10.27;;;5.50;;
54745;SDS011;40640;48.130;11.356;2023-06-26T14:50:16;6.57;;;5.78;;
54745;SDS011;40640;48.130;11.356;2023-06-26T14:54:19;5.63;;;4.97;;
54745;SDS011;40640;48.130;11.356;2023-06-26T14:58:23;7.88;;;5.80;;
54745;SDS011;40640;48.130;11.356;2023-06-26T15:06:31;6.70;;;5.53;;
54745;SDS011;40640;48.130;11.356;2023-06-26T15:10:35;6.25;;;5.18;;
54745;SDS011;40640;48.130;11.356;2023-06-26T15:14:38;8.70;;;5.60;;
54745;SDS011;40640;48.130;11.356;2023-06-26T15:18:43;10.05;;;6.05;;
54745;SDS011;40640;48.130;11.356;2023-06-26T15:22:45;11.77;;;5.88;;
54745;SDS011;40640;48.130;11.356;2023-06-26T15:26:48;7.90;;;5.88;;
54745;SDS011;40640;48.130;11.356;2023-06-26T15:30:51;9.43;;;6.20;;
54745;SDS011;40640;48.130;11.356;2023-06-26T15:34:55;8.02;;;6.00;;
54745;SDS011;40640;48.130;11.356;2023-06-26T15:38:58;7.45;;;6.20;;
54745;SDS011;40640;48.130;11.356;2023-06-26T15:43:01;10.20;;;6.50;;
54745;SDS011;40640;48.130;11.356;2023-06-26T15:47:05;11.05;;;6.45;;
54745;SDS011;40640;48.130;11.356;2023-06-26T15:51:09;11.00;;;5.80;;
54745;SDS011;40640;48.130;11.356;2023-06-26T15:55:16;10.88;;;6.32;;
54745;SDS011;40640;48.130;11.356;2023-06-26T15:59:19;9.68;;;6.20;;
54745;SDS011;40640;48.130;11.356;2023-06-26T16:03:21;8.48;;;6.40;;
54745;SDS011;40640;48.130;11.356;2023-06-26T16:07:26;8.00;;;5.78;;
54745;SDS011;40640;48.130;11.356;2023-06-26T16:11:30;8.93;;;5.93;;
54745;SDS011;40640;48.130;11.356;2023-06-26T16:15:33;16.63;;;6.30;;
54745;SDS011;40640;48.130;11.356;2023-06-26T16:19:36;10.13;;;6.15;;
54745;SDS011;40640;48.130;11.356;2023-06-26T16:23:40;10.48;;;6.60;;
54745;SDS011;40640;48.130;11.356;2023-06-26T16:27:43;15.15;;;5.75;;
54745;SDS011;40640;48.130;11.356;2023-06-26T16:31:46;9.05;;;5.97;;
54745;SDS011;40640;48.130;11.356;2023-06-26T16:35:50;10.38;;;6.45;;
54745;SDS011;40640;48.130;11.356;2023-06-26T16:39:54;10.10;;;6.30;;
54745;SDS011;40640;48.130;11.356;2023-06-26T16:43:57;17.23;;;6.68;;
54745;SDS011;40640;48.130;11.356;2023-06-26T16:48:00;10.68;;;6.95;;
54745;SDS011;40640;48.130;11.356;2023-06-26T16:52:03;9.30;;;6.60;;
54745;SDS011;40640;48.130;11.356;2023-06-26T16:56:08;9.70;;;6.25;;
54745;SDS011;40640;48.130;11.356;2023-06-26T17:00:11;9.32;;;6.38;;
54745;SDS011;40640;48.130;11.356;2023-06-26T17:04:15;7.40;;;5.63;;
54745;SDS011;40640;48.130;11.356;2023-06-26T17:08:18;9.20;;;6.85;;
54745;SDS011;40640;48.130;11.356;2023-06-26T17:12:22;13.65;;;6.80;;
54745;SDS011;40640;48.130;11.356;2023-06-26T17:16:27;9.73;;;6.63;;
54745;SDS011;40640;48.130;11.356;2023-06-26T17:20:30;9.07;;;6.57;;
54745;SDS011;40640;48.130;11.356;2023-06-26T17:24:35;10.23;;;6.20;;
54745;SDS011;40640;48.130;11.356;2023-06-26T17:28:40;14.63;;;6.70;;
54745;SDS011;40640;48.130;11.356;2023-06-26T17:32:43;11.32;;;5.70;;
54745;SDS011;40640;48.130;11.356;2023-06-26T17:36:46;16.27;;;6.50;;
54745;SDS011;40640;48.130;11.356;2023-06-26T17:40:49;9.60;;;6.25;;
54745;SDS011;40640;48.130;11.356;2023-06-26T17:44:54;10.05;;;6.43;;
54745;SDS011;40640;48.130;11.356;2023-06-26T17:48:57;10.02;;;7.28;;
54745;SDS011;40640;48.130;11.356;2023-06-26T17:53:00;12.88;;;6.82;;
54745;SDS011;40640;48.130;11.356;2023-06-26T17:57:03;9.55;;;6.40;;
54745;SDS011;40640;48.130;11.356;2023-06-26T18:01:08;11.68;;;7.00;;
54745;SDS011;40640;48.130;11.356;2023-06-26T18:05:15;11.77;;;7.13;;
54745;SDS011;40640;48.130;11.356;2023-06-26T18:09:20;10.40;;;6.88;;
54745;SDS011;40640;48.130;11.356;2023-06-26T18:13:23;10.90;;;7.10;;
54745;SDS011;40640;48.130;11.356;2023-06-26T18:17:30;12.55;;;7.07;;
54745;SDS011;40640;48.130;11.356;2023-06-26T18:21:33;12.02;;;7.22;;
54745;SDS011;40640;48.130;11.356;2023-06-26T18:25:36;9.40;;;7.03;;
54745;SDS011;40640;48.130;11.356;2023-06-26T18:29:39;12.60;;;6.43;;
54745;SDS011;40640;48.130;11.356;2023-06-26T18:33:43;11.75;;;7.47;;
54745;SDS011;40640;48.130;11.356;2023-06-26T18:37:46;11.18;;;7.35;;
54745;SDS011;40640;48.130;11.356;2023-06-26T18:41:53;8.07;;;6.57;;
54745;SDS011;40640;48.130;11.356;2023-06-26T18:45:56;13.55;;;7.55;;
54745;SDS011;40640;48.130;11.356;2023-06-26T18:50:00;14.48;;;6.95;;
54745;SDS011;40640;48.130;11.356;2023-06-26T18:54:04;13.73;;;7.03;;
54745;SDS011;40640;48.130;11.356;2023-06-26T18:58:07;12.85;;;7.43;;
54745;SDS011;40640;48.130;11.356;2023-06-26T19:02:10;10.68;;;6.78;;
54745;SDS011;40640;48.130;11.356;2023-06-26T19:06:14;12.95;;;7.22;;
54745;SDS011;40640;48.130;11.356;2023-06-26T19:10:17;16.48;;;7.13;;
54745;SDS011;40640;48.130;11.356;2023-06-26T19:14:20;11.10;;;7.07;;
54745;SDS011;40640;48.130;11.356;2023-06-26T19:18:23;13.98;;;7.20;;
54745;SDS011;40640;48.130;11.356;2023-06-26T19:22:27;11.13;;;6.63;;
54745;SDS011;40640;48.130;11.356;2023-06-26T19:26:32;11.13;;;6.45;;
54745;SDS011;40640;48.130;11.356;2023-06-26T19:30:35;9.15;;;6.20;;
54745;SDS011;40640;48.130;11.356;2023-06-26T19:34:38;12.32;;;6.07;;
54745;SDS011;40640;48.130;11.356;2023-06-26T19:38:43;8.55;;;6.32;;
54745;SDS011;40640;48.130;11.356;2023-06-26T19:42:45;9.07;;;6.30;;
54745;SDS011;40640;48.130;11.356;2023-06-26T19:46:48;11.38;;;6.22;;
54745;SDS011;40640;48.130;11.356;2023-06-26T19:50:51;11.27;;;6.65;;
54745;SDS011;40640;48.130;11.356;2023-06-26T19:54:56;9.23;;;6.47;;
54745;SDS011;40640;48.130;11.356;2023-06-26T19:58:58;12.05;;;7.22;;
54745;SDS011;40640;48.130;11.356;2023-06-26T20:03:01;9.18;;;6.13;;
54745;SDS011;40640;48.130;11.356;2023-06-26T20:07:05;10.63;;;6.10;;
54745;SDS011;40640;48.130;11.356;2023-06-26T20:11:09;13.45;;;6.60;;
54745;SDS011;40640;48.130;11.356;2023-06-26T20:15:12;13.20;;;5.97;;
54745;SDS011;40640;48.130;11.356;2023-06-26T20:19:15;19.65;;;6.18;;
54745;SDS011;40640;48.130;11.356;2023-06-26T20:23:18;11.27;;;6.13;;
54745;SDS011;40640;48.130;11.356;2023-06-26T20:27:22;11.18;;;6.43;;
54745;SDS011;40640;48.130;11.356;2023-06-26T20:31:25;10.23;;;7.20;;
54745;SDS011;40640;48.130;11.356;2023-06-26T20:35:28;8.30;;;6.03;;
54745;SDS011;40640;48.130;11.356;2023-06-26T20:39:31;14.68;;;6.45;;
54745;SDS011;40640;48.130;11.356;2023-06-26T20:43:36;10.85;;;6.05;;
54745;SDS011;40640;48.130;11.356;2023-06-26T20:47:40;15.45;;;6.70;;
54745;SDS011;40640;48.130;11.356;2023-06-26T20:51:44;12.90;;;5.85;;
54745;SDS011;40640;48.130;11.356;2023-06-26T20:55:47;9.25;;;6.70;;
54745;SDS011;40640;48.130;11.356;2023-06-26T20:59:52;11.05;;;6.80;;
54745;SDS011;40640;48.130;11.356;2023-06-26T21:03:55;10.57;;;6.75;;
54745;SDS011;40640;48.130;11.356;2023-06-26T21:07:58;13.38;;;6.43;;
54745;SDS011;40640;48.130;11.356;2023-06-26T21:12:01;11.77;;;6.38;;
54745;SDS011;40640;48.130;11.356;2023-06-26T21:16:06;16.15;;;6.95;;
54745;SDS011;40640;48.130;11.356;2023-06-26T21:20:09;10.15;;;6.75;;
54745;SDS011;40640;48.130;11.356;2023-06-26T21:24:12;12.27;;;6.65;;
54745;SDS011;40640;48.130;11.356;2023-06-26T21:28:15;14.32;;;6.13;;
54745;SDS011;40640;48.130;11.356;2023-06-26T21:32:19;13.60;;;6.05;;
54745;SDS011;40640;48.130;11.356;2023-06-26T21:36:22;11.65;;;5.70;;
54745;SDS011;40640;48.130;11.356;2023-06-26T21:40:25;8.75;;;6.15;;
54745;SDS011;40640;48.130;11.356;2023-06-26T21:44:28;12.38;;;5.82;;
54745;SDS011;40640;48.130;11.356;2023-06-26T21:48:33;7.68;;;5.10;;
54745;SDS011;40640;48.130;11.356;2023-06-26T21:52:37;9.50;;;5.00;;
54745;SDS011;40640;48.130;11.356;2023-06-26T21:56:40;10.80;;;3.80;;
54745;SDS011;40640;48.130;11.356;2023-06-26T22:00:42;9.35;;;4.25;;
54745;SDS011;40640;48.130;11.356;2023-06-26T22:04:47;10.00;;;3.67;;
54745;SDS011;40640;48.130;11.356;2023-06-26T22:08:50;8.20;;;3.90;;
54745;SDS011;40640;48.130;11.356;2023-06-26T22:12:53;6.70;;;3.83;;
54745;SDS011;40640;48.130;11.356;2023-06-26T22:16:56;7.28;;;3.63;;
54745;SDS011;40640;48.130;11.356;2023-06-26T22:21:00;7.78;;;3.50;;
54745;SDS011;40640;48.130;11.356;2023-06-26T22:25:03;6.45;;;3.95;;
54745;SDS011;40640;48.130;11.356;2023-06-26T22:29:06;8.43;;;3.53;;
54745;SDS011;40640;48.130;11.356;2023-06-26T22:33:09;7.85;;;3.92;;
54745;SDS011;40640;48.130;11.356;2023-06-26T22:37:14;7.53;;;3.70;;
54745;SDS011;40640;48.130;11.356;2023-06-26T22:41:17;6.93;;;3.30;;
54745;SDS011;40640;48.130;11.356;2023-06-26T22:45:20;5.90;;;3.17;;
54745;SDS011;40640;48.130;11.356;2023-06-26T22:49:23;7.63;;;2.67;;
54745;SDS011;40640;48.130;11.356;2023-06-26T22:53:27;3.75;;;2.80;;
54745;SDS011;40640;48.130;11.356;2023-06-26T22:57:30;4.03;;;2.80;;
54745;SDS011;40640;48.130;11.356;2023-06-26T23:01:33;7.88;;;2.63;;
54745;SDS011;40640;48.130;11.356;2023-06-26T23:05:38;9.95;;;2.63;;
54745;SDS011;40640;48.130;11.356;2023-06-26T23:09:43;6.50;;;2.50;;
54745;SDS011;40640;48.130;11.356;2023-06-26T23:13:46;5.78;;;2.53;;
54745;SDS011;40640;48.130;11.356;2023-06-26T23:17:49;4.95;;;2.65;;
54745;SDS011;40640;48.130;11.356;2023-06-26T23:21:52;7.20;;;2.10;;
54745;SDS011;40640;48.130;11.356;2023-06-26T23:25:57;7.40;;;2.40;;
54745;SDS011;40640;48.130;11.356;2023-06-26T23:30:00;11.07;;;2.78;;
54745;SDS011;40640;48.130;11.356;2023-06-26T23:34:03;5.70;;;1.92;;
54745;SDS011;40640;48.130;11.356;2023-06-26T23:38:09;6.18;;;2.33;;
54745;SDS011;40640;48.130;11.356;2023-06-26T23:42:13;7.07;;;2.10;;
54745;SDS011;40640;48.130;11.356;2023-06-26T23:46:17;8.10;;;2.08;;
54745;SDS011;40640;48.130;11.356;2023-06-26T23:50:20;5.65;;;2.08;;
54745;SDS011;40640;48.130;11.356;2023-06-26T23:54:22;7.90;;;2.00;;
54745;SDS011;40640;48.130;11.356;2023-06-26T23:58:27;4.15;;;1.80;;
